Time;durP1;ratioP1;P1;durP2;ratioP2;P2;SDS_P1;SDS_P2;PMS_P1;PMS_P2;Temp;Humidity;BMP_temperature;BMP_pressure;BME280_temperature;BME280_humidity;BME280_pressure;Samples;Min_cycle;Max_cycle;Signal;HPM_P1;HPM_P2
2023/03/22 00:00:52;;;;;;;4.32;1.95;;;11.60;85.10;;;;;;5107716;28;20043;-68
2023/03/22 00:03:18;;;;;;;2.53;1.77;;;11.50;85.10;;;;;;5097663;28;20024;-68
2023/03/22 00:05:43;;;;;;;3.42;1.58;;;11.50;85.00;;;;;;5082930;28;20077;-68
2023/03/22 00:08:12;;;;;;;4.90;1.92;;;11.50;85.00;;;;;;5103887;28;20033;-68
2023/03/22 00:10:38;;;;;;;4.65;2.10;;;11.50;84.90;;;;;;5085854;28;20023;-67
2023/03/22 00:13:06;;;;;;;2.67;1.42;;;11.50;84.90;;;;;;5086449;28;20039;-67
2023/03/22 00:15:32;;;;;;;2.67;1.40;;;11.50;84.90;;;;;;5091825;28;20020;-68
2023/03/22 00:17:58;;;;;;;3.33;1.60;;;11.50;84.80;;;;;;5100579;28;20478;-67
2023/03/22 00:20:29;;;;;;;4.25;1.58;;;11.50;84.80;;;;;;5087568;28;20024;-68
2023/03/22 00:22:56;;;;;;;2.53;1.40;;;11.50;84.80;;;;;;5097101;28;20377;-67
2023/03/22 00:25:22;;;;;;;2.75;1.58;;;11.50;84.70;;;;;;5087074;28;20096;-67
2023/03/22 00:27:47;;;;;;;5.13;1.80;;;11.40;84.60;;;;;;5083568;28;20028;-68
2023/03/22 00:30:13;;;;;;;4.72;1.90;;;11.40;84.60;;;;;;5088610;28;20040;-67
2023/03/22 00:32:41;;;;;;;3.38;1.65;;;11.40;84.50;;;;;;5091146;28;20416;-68
2023/03/22 00:35:08;;;;;;;3.83;2.00;;;11.40;84.50;;;;;;5101996;28;20427;-68
2023/03/22 00:37:37;;;;;;;5.45;2.28;;;11.30;85.10;;;;;;5078113;28;20028;-67
2023/03/22 00:40:07;;;;;;;2.83;1.50;;;11.30;84.50;;;;;;5089152;28;20501;-69
2023/03/22 00:42:36;;;;;;;5.05;1.70;;;11.30;84.40;;;;;;5078674;28;20060;-69
2023/03/22 00:45:03;;;;;;;4.60;1.80;;;11.30;84.40;;;;;;5087558;28;20035;-68
2023/03/22 00:47:29;;;;;;;4.60;1.50;;;11.30;84.40;;;;;;5086792;28;20047;-67
2023/03/22 00:49:55;;;;;;;5.63;1.92;;;11.20;84.30;;;;;;5092512;28;20394;-68
2023/03/22 00:52:21;;;;;;;5.07;2.00;;;11.20;84.40;;;;;;5088240;28;20494;-68
2023/03/22 00:54:46;;;;;;;2.75;1.50;;;11.20;84.50;;;;;;5100677;28;20012;-68
2023/03/22 00:57:13;;;;;;;2.78;1.80;;;11.20;84.50;;;;;;5088160;28;20031;-67
2023/03/22 00:59:39;;;;;;;4.60;1.90;;;11.20;84.50;;;;;;5097468;28;20016;-67
2023/03/22 01:02:05;;;;;;;3.13;1.98;;;11.20;84.50;;;;;;5096622;28;20039;-67
2023/03/22 01:04:34;;;;;;;10.00;2.17;;;11.20;84.50;;;;;;5095850;28;20024;-67
2023/03/22 01:07:02;;;;;;;3.70;1.70;;;11.20;84.50;;;;;;5094847;28;20088;-68
2023/03/22 01:09:30;;;;;;;3.40;1.73;;;11.20;84.50;;;;;;5100201;28;20386;-67
2023/03/22 01:12:00;;;;;;;5.93;2.13;;;11.20;84.50;;;;;;5091951;28;20119;-66
2023/03/22 01:14:27;;;;;;;5.25;2.00;;;11.20;84.50;;;;;;5103073;28;20027;-67
2023/03/22 01:16:56;;;;;;;5.97;2.15;;;11.10;84.60;;;;;;5082185;28;20385;-67
2023/03/22 01:19:26;;;;;;;4.07;1.92;;;11.10;84.50;;;;;;5102325;28;20035;-66
2023/03/22 01:21:52;;;;;;;5.18;1.90;;;11.10;84.50;;;;;;5089235;28;20031;-67
2023/03/22 01:24:18;;;;;;;3.28;1.77;;;11.10;84.40;;;;;;5089111;28;20035;-67
2023/03/22 01:26:44;;;;;;;5.65;1.80;;;11.20;84.40;;;;;;5086000;28;20418;-66
2023/03/22 01:29:09;;;;;;;3.80;1.85;;;11.20;84.40;;;;;;5072050;28;20028;-67
2023/03/22 01:31:35;;;;;;;4.28;1.85;;;11.20;84.40;;;;;;5092456;28;20497;-68
2023/03/22 01:34:01;;;;;;;3.83;1.70;;;11.20;84.40;;;;;;5104458;28;20093;-67
2023/03/22 01:36:26;;;;;;;3.65;1.55;;;11.20;84.40;;;;;;5091661;28;20026;-68
2023/03/22 01:38:52;;;;;;;2.38;1.60;;;11.20;84.30;;;;;;5085310;28;20022;-67
2023/03/22 01:41:17;;;;;;;4.07;1.83;;;11.20;84.30;;;;;;5102141;28;20473;-67
2023/03/22 01:43:43;;;;;;;4.32;2.00;;;11.20;84.30;;;;;;5101116;28;20709;-68
2023/03/22 01:46:08;;;;;;;3.22;1.52;;;11.20;84.40;;;;;;5084763;28;20055;-68
2023/03/22 01:48:44;;;;;;;4.28;1.52;;;11.20;84.30;;;;;;5080966;28;20099;-67
2023/03/22 01:51:19;;;;;;;2.58;1.60;;;11.20;84.30;;;;;;5099238;28;20099;-67
2023/03/22 01:53:54;;;;;;;2.50;1.58;;;11.20;84.30;;;;;;5101776;28;20077;-67
2023/03/22 01:56:24;;;;;;;4.60;1.60;;;11.20;84.20;;;;;;5093270;28;20094;-67
2023/03/22 01:58:52;;;;;;;4.10;1.60;;;11.20;84.10;;;;;;5090110;28;20040;-68
2023/03/22 02:01:18;;;;;;;5.03;2.00;;;11.20;84.10;;;;;;5100509;28;20045;-68
2023/03/22 02:04:03;;;;;;;4.32;2.10;;;11.20;84.20;;;;;;5090562;28;20159;-68
2023/03/22 02:06:31;;;;;;;2.58;1.73;;;11.20;84.20;;;;;;5078416;28;20031;-67
2023/03/22 02:08:57;;;;;;;3.03;1.83;;;11.30;84.20;;;;;;5086764;28;20020;-67
2023/03/22 02:11:34;;;;;;;4.55;2.05;;;11.30;84.10;;;;;;5102155;28;20028;-67
2023/03/22 02:14:27;;;;;;;4.70;1.83;;;11.20;84.10;;;;;;5109460;28;20115;-67
2023/03/22 02:17:01;;;;;;;5.35;2.03;;;11.30;84.10;;;;;;5084935;28;20489;-67
2023/03/22 02:20:15;;;;;;;5.13;1.83;;;11.30;84.10;;;;;;5078092;28;20394;-67
2023/03/22 02:22:40;;;;;;;4.10;2.30;;;11.30;84.20;;;;;;5067665;28;20041;-68
2023/03/22 02:25:37;;;;;;;3.33;2.15;;;11.30;84.30;;;;;;5088240;28;20046;-68
2023/03/22 02:28:23;;;;;;;5.20;2.53;;;11.30;84.30;;;;;;5092077;28;20036;-66
2023/03/22 02:31:12;;;;;;;4.75;2.60;;;11.30;84.30;;;;;;5104122;28;20024;-68
2023/03/22 02:34:08;;;;;;;3.83;2.38;;;11.40;84.40;;;;;;5081189;28;20081;-67
2023/03/22 02:36:43;;;;;;;7.15;3.58;;;11.40;84.40;;;;;;5074087;28;20024;-67
2023/03/22 02:39:20;;;;;;;5.25;2.92;;;11.40;84.70;;;;;;5084820;28;20031;-68
2023/03/22 02:42:05;;;;;;;7.10;4.10;;;11.40;84.70;;;;;;5104879;28;20387;-68
2023/03/22 02:44:49;;;;;;;9.90;4.22;;;11.40;85.10;;;;;;5078074;28;20031;-67
2023/03/22 02:47:23;;;;;;;9.25;4.03;;;11.40;85.30;;;;;;5100221;28;20482;-68
2023/03/22 02:49:53;;;;;;;9.13;4.60;;;11.40;85.30;;;;;;5097540;28;20023;-68
2023/03/22 02:52:31;;;;;;;8.43;4.40;;;11.40;85.70;;;;;;5105824;28;20058;-67
2023/03/22 02:55:04;;;;;;;7.97;4.05;;;11.50;86.00;;;;;;5088577;28;20037;-67
2023/03/22 02:57:39;;;;;;;8.80;4.28;;;11.50;86.00;;;;;;5096735;28;20197;-67
2023/03/22 03:00:09;;;;;;;6.88;4.00;;;11.50;85.90;;;;;;5087404;28;20028;-68
2023/03/22 03:02:36;;;;;;;9.18;5.50;;;11.50;85.90;;;;;;5091500;28;20072;-69
2023/03/22 03:05:03;;;;;;;10.57;5.30;;;11.60;86.40;;;;;;5084231;28;20047;-67
2023/03/22 03:07:30;;;;;;;10.07;5.47;;;11.60;86.50;;;;;;5101411;28;20733;-67
2023/03/22 03:09:56;;;;;;;8.88;4.70;;;11.60;86.50;;;;;;5088406;28;20060;-68
2023/03/22 03:12:26;;;;;;;8.27;4.78;;;11.70;86.50;;;;;;5071519;28;20055;-68
2023/03/22 03:14:53;;;;;;;11.93;6.10;;;11.70;86.40;;;;;;5093490;28;20043;-67
2023/03/22 03:17:27;;;;;;;10.05;4.78;;;11.70;86.80;;;;;;5096786;28;20561;-67
2023/03/22 03:19:58;;;;;;;8.70;5.28;;;11.70;86.70;;;;;;5099022;28;20023;-67
2023/03/22 03:23:21;;;;;;;9.10;5.00;;;11.70;86.80;;;;;;5085396;28;20119;-66
2023/03/22 03:26:19;;;;;;;10.32;5.32;;;11.70;86.80;;;;;;5093326;28;20144;-67
2023/03/22 03:29:01;;;;;;;9.68;4.63;;;11.70;87.10;;;;;;5083147;28;20515;-67
2023/03/22 03:31:38;;;;;;;9.15;5.15;;;11.60;87.00;;;;;;5094180;28;20693;-67
2023/03/22 03:34:22;;;;;;;11.05;6.10;;;11.60;87.00;;;;;;5084041;28;20032;-67
2023/03/22 03:37:11;;;;;;;12.07;5.18;;;11.60;87.30;;;;;;5089177;28;20040;-66
2023/03/22 03:39:44;;;;;;;8.85;4.90;;;11.60;87.20;;;;;;5076637;28;20039;-66
2023/03/22 03:42:14;;;;;;;9.98;5.38;;;11.60;87.30;;;;;;5103093;28;20094;-67
2023/03/22 03:44:40;;;;;;;8.70;4.85;;;11.60;87.80;;;;;;5073844;28;20119;-66
2023/03/22 03:47:07;;;;;;;7.95;4.43;;;11.60;87.70;;;;;;5080136;28;20024;-66
2023/03/22 03:49:33;;;;;;;6.68;4.18;;;11.60;87.60;;;;;;5086180;28;20048;-67
2023/03/22 03:51:59;;;;;;;6.35;3.80;;;11.60;87.50;;;;;;5101879;28;20063;-67
2023/03/22 03:54:25;;;;;;;7.43;3.92;;;11.60;87.40;;;;;;5073554;28;20020;-67
2023/03/22 03:56:51;;;;;;;7.88;4.53;;;11.60;87.40;;;;;;5096260;28;20011;-67
2023/03/22 03:59:17;;;;;;;9.90;4.97;;;11.60;87.50;;;;;;5092047;28;20024;-67
2023/03/22 04:01:51;;;;;;;9.35;4.85;;;11.60;87.70;;;;;;5086619;28;20226;-67
2023/03/22 04:04:25;;;;;;;6.68;3.70;;;11.50;87.60;;;;;;5074873;28;20028;-67
2023/03/22 04:07:02;;;;;;;8.00;4.10;;;11.50;87.50;;;;;;5103252;28;20020;-66
2023/03/22 04:09:32;;;;;;;5.88;3.67;;;11.50;87.60;;;;;;5083952;28;20036;-68
2023/03/22 04:11:57;;;;;;;6.40;3.50;;;11.60;87.50;;;;;;5105224;28;20035;-68
2023/03/22 04:14:24;;;;;;;5.57;3.78;;;11.50;87.50;;;;;;5076782;28;20760;-67
2023/03/22 04:16:51;;;;;;;10.57;4.35;;;11.50;87.50;;;;;;5099544;28;20020;-68
2023/03/22 04:19:16;;;;;;;8.82;4.13;;;11.50;87.70;;;;;;5097636;28;20436;-67
2023/03/22 04:21:42;;;;;;;8.30;4.35;;;11.50;87.60;;;;;;5100727;28;20056;-68
2023/03/22 04:24:08;;;;;;;6.93;3.65;;;11.40;87.60;;;;;;5079955;28;20546;-68
2023/03/22 04:26:34;;;;;;;6.00;3.55;;;11.40;87.50;;;;;;5090711;27;20110;-68
2023/03/22 04:29:01;;;;;;;8.15;4.22;;;11.50;87.60;;;;;;5096398;28;20102;-68
2023/03/22 04:31:28;;;;;;;6.55;3.67;;;11.40;87.80;;;;;;5096718;28;20477;-67
2023/03/22 04:33:54;;;;;;;5.18;3.05;;;11.40;87.80;;;;;;5081427;28;20391;-67
2023/03/22 04:36:23;;;;;;;5.55;3.17;;;11.40;87.70;;;;;;5084013;28;20021;-67
2023/03/22 04:38:50;;;;;;;6.40;3.10;;;11.40;87.60;;;;;;5084261;28;20024;-67
2023/03/22 04:41:17;;;;;;;6.68;3.53;;;11.40;87.50;;;;;;5093258;28;20031;-67
2023/03/22 04:43:45;;;;;;;8.05;3.50;;;11.40;87.60;;;;;;5086195;27;20028;-67
2023/03/22 04:46:12;;;;;;;5.90;3.67;;;11.40;87.70;;;;;;5091513;28;20506;-67
2023/03/22 04:48:40;;;;;;;5.93;3.45;;;11.30;87.70;;;;;;5098314;28;20034;-67
2023/03/22 04:51:07;;;;;;;5.40;2.92;;;11.30;87.80;;;;;;5100349;28;20512;-68
2023/03/22 04:53:37;;;;;;;4.43;2.92;;;11.30;87.80;;;;;;5087705;28;20039;-69
2023/03/22 04:56:05;;;;;;;4.85;2.58;;;11.30;87.90;;;;;;5075504;28;20031;-67
2023/03/22 04:58:32;;;;;;;6.38;3.05;;;11.30;87.80;;;;;;5108328;28;20016;-66
2023/03/22 05:00:58;;;;;;;4.95;2.85;;;11.30;87.90;;;;;;5094014;28;20480;-68
2023/03/22 05:03:24;;;;;;;6.63;2.70;;;11.20;87.80;;;;;;5090428;28;20039;-67
2023/03/22 05:05:55;;;;;;;5.88;2.53;;;11.20;87.70;;;;;;5077469;28;20084;-68
2023/03/22 05:08:23;;;;;;;7.78;3.30;;;11.30;87.80;;;;;;5099463;28;20025;-68
2023/03/22 05:10:51;;;;;;;4.60;2.67;;;11.20;87.80;;;;;;5091295;28;20144;-68
2023/03/22 05:13:17;;;;;;;5.65;3.17;;;11.20;88.00;;;;;;5087144;28;20487;-68
2023/03/22 05:15:44;;;;;;;5.38;3.17;;;11.20;87.90;;;;;;5089332;28;20106;-68
2023/03/22 05:18:10;;;;;;;7.50;3.38;;;11.20;88.10;;;;;;5090601;28;20070;-68
2023/03/22 05:20:36;;;;;;;6.78;3.22;;;11.20;88.20;;;;;;5105574;28;20023;-68
2023/03/22 05:23:01;;;;;;;7.07;3.67;;;11.20;88.30;;;;;;5097878;28;20052;-68
2023/03/22 05:25:27;;;;;;;3.10;2.03;;;11.20;88.10;;;;;;5083199;28;20135;-68
2023/03/22 05:27:53;;;;;;;5.85;2.80;;;11.20;88.00;;;;;;5072801;28;20040;-68
2023/03/22 05:30:19;;;;;;;7.28;3.33;;;11.20;88.00;;;;;;5104801;28;20032;-68
2023/03/22 05:32:46;;;;;;;4.63;2.55;;;11.20;88.10;;;;;;5097492;28;20564;-68
2023/03/22 05:35:12;;;;;;;5.78;2.97;;;11.20;88.10;;;;;;5101700;28;20025;-67
2023/03/22 05:37:38;;;;;;;3.53;2.45;;;11.20;88.10;;;;;;5096963;28;20076;-68
2023/03/22 05:40:08;;;;;;;3.25;2.28;;;11.20;88.00;;;;;;5093961;28;20110;-69
2023/03/22 05:42:35;;;;;;;7.03;3.00;;;11.20;87.90;;;;;;5077823;28;20027;-69
2023/03/22 05:45:01;;;;;;;4.38;2.55;;;11.20;87.90;;;;;;5080688;28;20490;-68
2023/03/22 05:47:26;;;;;;;6.28;2.60;;;11.20;87.90;;;;;;5095964;28;20076;-68
2023/03/22 05:49:52;;;;;;;6.90;2.80;;;11.20;87.80;;;;;;5088929;28;20035;-67
2023/03/22 05:52:17;;;;;;;4.85;2.70;;;11.10;87.80;;;;;;5089076;28;20062;-67
2023/03/22 05:54:43;;;;;;;3.95;2.20;;;11.10;87.90;;;;;;5081650;28;20032;-67
2023/03/22 05:57:09;;;;;;;4.40;2.47;;;11.10;87.90;;;;;;5083919;28;20038;-69
2023/03/22 05:59:35;;;;;;;5.07;2.45;;;11.10;88.00;;;;;;5089321;28;20567;-69
2023/03/22 06:02:00;;;;;;;5.55;2.53;;;11.10;88.00;;;;;;5082717;28;20103;-68
2023/03/22 06:04:26;;;;;;;3.80;2.08;;;11.10;88.10;;;;;;5082960;28;20099;-67
2023/03/22 06:06:52;;;;;;;4.78;2.30;;;11.00;88.00;;;;;;5086263;28;20520;-67
2023/03/22 06:09:18;;;;;;;4.63;2.33;;;11.00;88.00;;;;;;5078803;28;20032;-67
2023/03/22 06:11:44;;;;;;;4.78;2.75;;;11.10;88.10;;;;;;5082206;28;20034;-67
2023/03/22 06:14:10;;;;;;;7.35;2.10;;;11.00;88.10;;;;;;5089837;28;20064;-68
2023/03/22 06:16:35;;;;;;;5.55;2.28;;;11.10;88.10;;;;;;5085672;28;20023;-68
2023/03/22 06:19:01;;;;;;;4.53;2.30;;;11.10;87.90;;;;;;5080838;28;20036;-68
2023/03/22 06:21:26;;;;;;;5.45;2.35;;;11.10;87.80;;;;;;5071627;28;20024;-68
2023/03/22 06:23:52;;;;;;;7.35;2.95;;;11.10;87.70;;;;;;5084558;28;20024;-68
2023/03/22 06:26:17;;;;;;;7.03;2.65;;;11.10;87.80;;;;;;5094920;28;20031;-68
2023/03/22 06:28:43;;;;;;;7.85;2.55;;;11.10;87.80;;;;;;5090568;28;20095;-68
2023/03/22 06:31:09;;;;;;;5.38;2.55;;;11.10;87.70;;;;;;5081149;28;20027;-68
2023/03/22 06:33:35;;;;;;;5.82;2.50;;;11.10;87.80;;;;;;5083717;28;20021;-67
2023/03/22 06:36:05;;;;;;;4.85;2.20;;;11.10;87.70;;;;;;5072742;28;20495;-68
2023/03/22 06:38:30;;;;;;;3.47;2.38;;;11.10;87.50;;;;;;5102574;28;20017;-67
2023/03/22 06:40:56;;;;;;;3.50;1.90;;;11.10;87.50;;;;;;5082046;28;20064;-68
2023/03/22 06:43:21;;;;;;;4.40;1.77;;;11.10;87.50;;;;;;5071653;28;20036;-68
2023/03/22 06:45:47;;;;;;;4.10;1.80;;;11.10;87.50;;;;;;5099584;28;20098;-67
2023/03/22 06:48:13;;;;;;;3.90;1.90;;;11.10;87.40;;;;;;5107126;28;20031;-68
2023/03/22 06:50:40;;;;;;;3.72;1.63;;;11.10;87.30;;;;;;5094107;28;20073;-68
2023/03/22 06:53:06;;;;;;;2.67;1.52;;;11.10;87.20;;;;;;5088750;28;20034;-67
2023/03/22 06:55:33;;;;;;;5.60;2.08;;;11.20;87.10;;;;;;5068542;28;20425;-68
2023/03/22 06:58:00;;;;;;;4.93;1.75;;;11.20;87.00;;;;;;5082757;28;20115;-68
2023/03/22 07:00:26;;;;;;;7.82;2.08;;;11.30;86.80;;;;;;5073690;28;20405;-68
2023/03/22 07:02:52;;;;;;;5.75;2.05;;;11.40;86.60;;;;;;5085351;28;20038;-68
2023/03/22 07:05:18;;;;;;;4.57;1.83;;;11.60;86.20;;;;;;5084240;28;20024;-68
2023/03/22 07:07:43;;;;;;;4.65;1.90;;;11.70;85.80;;;;;;5077266;28;20031;-67
2023/03/22 07:10:09;;;;;;;4.18;1.88;;;11.70;85.30;;;;;;5076654;28;20433;-68
2023/03/22 07:12:35;;;;;;;4.65;1.58;;;11.80;85.20;;;;;;5078466;28;20036;-69
2023/03/22 07:15:01;;;;;;;4.47;1.75;;;11.80;85.20;;;;;;5083834;28;20016;-70
2023/03/22 07:17:26;;;;;;;3.80;2.05;;;11.70;85.10;;;;;;5079260;28;20027;-67
2023/03/22 07:19:52;;;;;;;2.88;1.63;;;11.70;85.10;;;;;;5088714;28;20481;-68
2023/03/22 07:22:21;;;;;;;1.77;1.55;;;11.80;85.20;;;;;;5089124;28;20437;-68
2023/03/22 07:24:50;;;;;;;4.03;1.90;;;11.80;85.10;;;;;;5094745;28;20474;-68
2023/03/22 07:27:17;;;;;;;2.85;1.85;;;11.80;85.00;;;;;;5080612;28;20039;-66
2023/03/22 07:29:42;;;;;;;4.60;2.10;;;11.80;84.90;;;;;;5077717;28;20031;-67
2023/03/22 07:32:08;;;;;;;4.20;2.10;;;11.80;84.70;;;;;;5083817;28;20032;-67
2023/03/22 07:34:34;;;;;;;4.60;2.20;;;11.80;84.70;;;;;;5083893;28;20374;-67
2023/03/22 07:37:01;;;;;;;3.50;1.95;;;11.80;84.70;;;;;;5078675;28;20028;-66
2023/03/22 07:39:28;;;;;;;3.30;1.63;;;11.90;84.70;;;;;;5082592;28;20020;-67
2023/03/22 07:41:54;;;;;;;5.82;2.17;;;11.90;84.60;;;;;;5081796;28;20040;-67
2023/03/22 07:44:19;;;;;;;3.25;1.70;;;11.90;84.50;;;;;;5081511;28;20661;-66
2023/03/22 07:46:45;;;;;;;6.47;1.88;;;11.90;85.10;;;;;;5073215;28;20036;-68
2023/03/22 07:49:11;;;;;;;4.93;2.28;;;11.90;84.40;;;;;;5088064;28;20035;-67
2023/03/22 07:51:36;;;;;;;4.30;1.90;;;11.90;84.50;;;;;;5083208;28;20412;-66
2023/03/22 07:54:02;;;;;;;5.50;2.28;;;11.90;84.40;;;;;;5087072;28;20038;-67
2023/03/22 07:56:27;;;;;;;5.28;2.67;;;11.90;84.50;;;;;;5091004;28;20521;-68
2023/03/22 07:58:53;;;;;;;9.52;2.20;;;11.90;84.40;;;;;;5084388;28;20029;-67
2023/03/22 08:01:18;;;;;;;7.68;2.45;;;11.90;84.40;;;;;;5085152;28;20111;-67
2023/03/22 08:03:44;;;;;;;6.93;2.75;;;11.90;84.40;;;;;;5079869;28;20028;-67
2023/03/22 08:06:11;;;;;;;6.05;2.40;;;11.90;84.30;;;;;;5085487;28;20062;-68
2023/03/22 08:08:37;;;;;;;5.53;2.13;;;11.90;84.20;;;;;;5083570;28;20077;-68
2023/03/22 08:11:06;;;;;;;6.85;2.85;;;12.00;84.10;;;;;;5075621;28;20033;-69
2023/03/22 08:13:32;;;;;;;8.63;2.67;;;12.00;84.00;;;;;;5083454;28;20031;-67
2023/03/22 08:15:58;;;;;;;6.88;2.50;;;12.00;83.90;;;;;;5082700;28;20017;-67
2023/03/22 08:18:24;;;;;;;5.90;2.53;;;12.00;83.90;;;;;;5088961;28;20027;-68
2023/03/22 08:20:55;;;;;;;4.20;1.95;;;12.00;83.90;;;;;;5094626;28;20028;-67
2023/03/22 08:23:21;;;;;;;3.35;1.92;;;12.10;83.90;;;;;;5076274;28;20451;-67
2023/03/22 08:25:46;;;;;;;4.18;2.28;;;12.10;83.70;;;;;;5084402;28;20048;-66
2023/03/22 08:28:13;;;;;;;3.67;1.90;;;12.10;83.70;;;;;;5086862;28;20063;-67
2023/03/22 08:30:38;;;;;;;3.65;2.03;;;12.20;83.70;;;;;;5083561;28;20020;-66
2023/03/22 08:33:05;;;;;;;4.05;1.85;;;12.20;83.50;;;;;;5085429;28;20032;-67
2023/03/22 08:35:31;;;;;;;6.25;2.55;;;12.20;83.30;;;;;;5085447;28;20022;-67
2023/03/22 08:37:56;;;;;;;4.65;2.10;;;12.30;83.40;;;;;;5084840;28;20095;-67
2023/03/22 08:40:22;;;;;;;4.03;2.20;;;12.30;83.90;;;;;;5085686;28;20020;-68
2023/03/22 08:42:49;;;;;;;5.13;1.90;;;12.40;83.10;;;;;;5084094;28;20028;-67
2023/03/22 08:45:15;;;;;;;5.13;1.95;;;12.40;83.00;;;;;;5084213;28;20028;-67
2023/03/22 08:47:41;;;;;;;6.45;2.25;;;12.50;82.90;;;;;;5084873;28;20543;-67
2023/03/22 08:50:07;;;;;;;5.63;2.40;;;12.50;82.60;;;;;;5086945;28;20024;-67
2023/03/22 08:52:33;;;;;;;5.38;2.63;;;12.50;82.40;;;;;;5088318;28;20132;-66
2023/03/22 08:54:59;;;;;;;6.40;2.50;;;12.50;82.30;;;;;;5088088;28;20111;-68
2023/03/22 08:57:26;;;;;;;3.28;1.75;;;12.50;82.00;;;;;;5088203;28;20475;-68
2023/03/22 08:59:52;;;;;;;4.78;2.20;;;12.60;82.00;;;;;;5085003;28;20471;-67
2023/03/22 09:02:18;;;;;;;7.28;2.72;;;12.80;81.90;;;;;;5085128;28;20032;-67
2023/03/22 09:04:44;;;;;;;8.75;2.72;;;12.80;81.30;;;;;;5086862;28;20036;-67
2023/03/22 09:07:09;;;;;;;11.05;3.30;;;12.90;80.80;;;;;;5089687;28;20024;-67
2023/03/22 09:09:35;;;;;;;6.85;2.90;;;12.90;80.30;;;;;;5088227;28;20111;-68
2023/03/22 09:12:01;;;;;;;4.28;2.33;;;13.00;80.30;;;;;;5082214;28;20028;-69
2023/03/22 09:14:27;;;;;;;4.57;2.35;;;13.00;80.00;;;;;;5089146;28;20024;-68
2023/03/22 09:16:52;;;;;;;5.82;2.58;;;13.00;80.00;;;;;;5081165;28;20031;-67
2023/03/22 09:19:18;;;;;;;4.80;2.42;;;13.10;79.70;;;;;;5090925;28;20024;-68
2023/03/22 09:21:44;;;;;;;8.93;2.50;;;13.10;79.40;;;;;;5087878;28;20029;-68
2023/03/22 09:24:10;;;;;;;6.93;2.10;;;13.10;78.80;;;;;;5085146;28;20100;-69
2023/03/22 09:26:35;;;;;;;4.78;2.22;;;13.20;78.90;;;;;;5087908;28;20111;-67
2023/03/22 09:29:02;;;;;;;4.57;2.20;;;13.20;78.60;;;;;;5089443;28;20020;-68
2023/03/22 09:31:27;;;;;;;9.32;2.60;;;13.20;78.50;;;;;;5084368;28;20035;-67
2023/03/22 09:33:53;;;;;;;4.85;2.17;;;13.30;77.60;;;;;;5088633;28;20028;-67
2023/03/22 09:36:19;;;;;;;3.53;1.80;;;13.20;77.70;;;;;;5085869;28;20024;-67
2023/03/22 09:38:45;;;;;;;3.92;1.77;;;13.30;78.10;;;;;;5090152;28;20051;-68
2023/03/22 09:41:16;;;;;;;4.88;2.00;;;13.30;78.10;;;;;;5084989;28;20021;-67
2023/03/22 09:43:48;;;;;;;5.05;1.85;;;13.40;78.30;;;;;;5082134;28;20042;-67
2023/03/22 09:46:19;;;;;;;;;;;13.40;78.10;;;;;;5086430;28;20382;-67
2023/03/22 09:48:46;;;;;;;6.28;2.00;;;13.30;77.40;;;;;;5085972;28;20312;-67
2023/03/22 09:51:31;;;;;;;4.07;1.70;;;13.20;77.50;;;;;;5087315;28;20024;-67
2023/03/22 09:53:57;;;;;;;7.07;1.90;;;13.20;77.80;;;;;;5082933;28;20056;-68
2023/03/22 09:56:26;;;;;;;4.47;1.60;;;13.10;77.50;;;;;;5080085;28;20546;-67
2023/03/22 09:59:21;;;;;;;3.35;1.52;;;13.10;78.00;;;;;;5079731;28;20024;-68
2023/03/22 10:02:23;;;;;;;3.40;1.63;;;13.10;78.00;;;;;;5079876;28;20074;-66
2023/03/22 10:05:01;;;;;;;5.13;1.90;;;13.10;77.80;;;;;;5075539;28;20526;-67
2023/03/22 10:07:36;;;;;;;5.03;1.75;;;13.00;77.50;;;;;;5077419;28;20107;-68
2023/03/22 10:10:11;;;;;;;4.55;1.80;;;13.00;77.70;;;;;;5085537;28;20376;-68
2023/03/22 10:13:18;;;;;;;2.75;1.52;;;13.00;77.80;;;;;;5083329;28;20028;-67
2023/03/22 10:15:47;;;;;;;3.28;1.27;;;13.10;78.10;;;;;;5080550;28;20036;-66
2023/03/22 10:18:25;;;;;;;2.58;1.25;;;13.10;78.00;;;;;;5084964;28;20510;-66
2023/03/22 10:21:03;;;;;;;4.55;1.38;;;13.20;78.10;;;;;;5087262;28;20371;-69
2023/03/22 10:23:41;;;;;;;3.50;1.33;;;13.20;78.10;;;;;;5084744;28;20474;-66
2023/03/22 10:26:11;;;;;;;2.72;1.20;;;13.10;78.20;;;;;;5087110;28;20040;-66
2023/03/22 10:28:40;;;;;;;4.85;1.25;;;13.20;78.30;;;;;;5086479;28;20027;-68
2023/03/22 10:31:13;;;;;;;4.15;1.67;;;13.10;78.40;;;;;;5088018;28;20043;-68
2023/03/22 10:33:57;;;;;;;6.53;1.50;;;13.00;78.60;;;;;;5086479;28;20547;-66
2023/03/22 10:36:29;;;;;;;2.92;1.30;;;13.00;78.90;;;;;;5083341;28;20366;-66
2023/03/22 10:38:59;;;;;;;4.90;2.22;;;12.90;79.20;;;;;;5081766;28;20020;-68
2023/03/22 10:41:26;;;;;;;6.90;2.03;;;12.90;79.40;;;;;;5085614;28;20024;-66
2023/03/22 10:43:55;;;;;;;5.15;1.40;;;12.80;79.50;;;;;;5084753;28;20020;-67
2023/03/22 10:46:26;;;;;;;3.30;1.30;;;12.80;79.80;;;;;;5079957;28;20043;-67
2023/03/22 10:48:57;;;;;;;1.80;1.38;;;12.70;79.90;;;;;;5083654;28;20494;-66
2023/03/22 10:51:39;;;;;;;2.20;1.10;;;12.70;80.10;;;;;;5086545;28;20023;-67
2023/03/22 10:54:10;;;;;;;2.97;1.70;;;12.70;80.30;;;;;;5081053;28;20530;-67
2023/03/22 10:56:35;;;;;;;2.47;1.37;;;12.70;80.50;;;;;;5083988;28;20023;-68
2023/03/22 10:59:01;;;;;;;4.40;1.30;;;12.70;80.80;;;;;;5078235;28;20032;-66
2023/03/22 11:01:38;;;;;;;5.13;1.60;;;12.70;80.90;;;;;;5085570;28;20099;-68
2023/03/22 11:04:12;;;;;;;4.15;1.60;;;12.60;81.30;;;;;;5072540;28;20039;-68
2023/03/22 11:06:47;;;;;;;1.60;1.20;;;12.60;81.50;;;;;;5073433;28;20024;-67
2023/03/22 11:09:19;;;;;;;4.72;1.42;;;12.60;81.70;;;;;;5080588;28;20027;-67
2023/03/22 11:11:57;;;;;;;2.13;1.20;;;12.60;81.80;;;;;;5085712;28;20024;-67
2023/03/22 11:14:30;;;;;;;2.75;1.38;;;12.60;81.90;;;;;;5082077;28;20027;-66
2023/03/22 11:17:05;;;;;;;4.78;1.50;;;12.60;82.10;;;;;;5074958;28;20058;-66
2023/03/22 11:19:50;;;;;;;3.85;1.50;;;12.50;82.30;;;;;;5082610;28;20025;-68
2023/03/22 11:22:30;;;;;;;4.97;1.88;;;12.50;83.30;;;;;;5088336;28;20121;-66
2023/03/22 11:24:57;;;;;;;3.30;1.63;;;12.40;83.00;;;;;;5078361;28;20099;-67
2023/03/22 11:27:31;;;;;;;3.55;1.75;;;12.40;83.20;;;;;;5068432;28;20090;-67
2023/03/22 11:30:06;;;;;;;3.25;1.25;;;12.40;83.30;;;;;;5076167;28;20020;-67
2023/03/22 11:32:37;;;;;;;2.58;1.35;;;12.40;83.30;;;;;;5090486;28;20078;-67
2023/03/22 11:35:25;;;;;;;3.17;1.35;;;12.40;83.30;;;;;;5084681;28;20024;-67
2023/03/22 11:37:53;;;;;;;5.18;1.60;;;12.40;83.50;;;;;;5069800;28;20030;-67
2023/03/22 11:40:20;;;;;;;4.43;1.88;;;12.40;83.70;;;;;;5082675;28;20102;-66
2023/03/22 11:42:51;;;;;;;5.40;1.70;;;12.40;84.00;;;;;;5074982;28;20477;-66
2023/03/22 11:45:35;;;;;;;6.13;1.83;;;12.40;84.20;;;;;;5089702;28;20050;-67
2023/03/22 11:48:05;;;;;;;3.63;1.40;;;12.40;84.40;;;;;;5073357;28;20491;-68
2023/03/22 11:50:35;;;;;;;4.30;1.52;;;12.30;84.70;;;;;;5078336;28;20024;-68
2023/03/22 11:53:03;;;;;;;5.85;1.70;;;12.30;84.80;;;;;;5089694;28;20055;-68
2023/03/22 11:55:32;;;;;;;5.03;1.88;;;12.30;84.80;;;;;;5087143;28;20016;-67
2023/03/22 11:58:00;;;;;;;3.17;1.52;;;12.30;84.70;;;;;;5090303;28;20024;-66
2023/03/22 12:00:29;;;;;;;5.20;1.50;;;12.40;84.70;;;;;;5083184;28;20095;-67
2023/03/22 12:03:03;;;;;;;5.65;1.90;;;12.40;84.60;;;;;;5073830;28;20025;-66
2023/03/22 12:05:31;;;;;;;2.80;1.42;;;12.50;84.60;;;;;;5075973;28;20027;-66
2023/03/22 12:08:08;;;;;;;3.40;1.58;;;12.50;84.50;;;;;;5075432;28;20378;-68
2023/03/22 12:10:43;;;;;;;4.03;1.50;;;12.40;84.40;;;;;;5076369;28;20069;-66
2023/03/22 12:13:20;;;;;;;4.28;1.60;;;12.50;84.40;;;;;;5089777;28;20382;-67
2023/03/22 12:15:51;;;;;;;4.50;1.38;;;12.50;84.30;;;;;;5081820;28;20081;-68
2023/03/22 12:18:25;;;;;;;3.10;1.60;;;12.50;84.30;;;;;;5077804;28;20021;-67
2023/03/22 12:20:54;;;;;;;3.92;1.63;;;12.50;84.40;;;;;;5077628;28;20023;-66
2023/03/22 12:23:23;;;;;;;5.47;1.80;;;12.50;84.20;;;;;;5078682;28;20474;-65
2023/03/22 12:25:50;;;;;;;7.22;1.88;;;12.50;84.30;;;;;;5084071;28;20035;-67
2023/03/22 12:28:21;;;;;;;5.15;1.73;;;12.40;84.30;;;;;;5091254;28;20390;-67
2023/03/22 12:30:50;;;;;;;4.07;1.65;;;12.50;84.20;;;;;;5093529;28;20024;-67
2023/03/22 12:33:30;;;;;;;3.25;1.70;;;12.50;84.20;;;;;;5092394;28;20051;-67
2023/03/22 12:36:06;;;;;;;6.07;1.38;;;12.50;84.10;;;;;;5089581;28;20024;-68
2023/03/22 12:38:51;;;;;;;3.00;1.70;;;12.50;84.10;;;;;;5089559;28;20020;-67
2023/03/22 12:41:33;;;;;;;3.70;1.42;;;12.50;84.10;;;;;;5079910;28;20028;-66
2023/03/22 12:44:04;;;;;;;;;;;12.50;84.10;;;;;;5101981;28;20031;-66
2023/03/22 12:46:43;;;;;;;4.25;1.50;;;12.60;84.00;;;;;;5082631;28;19970;-68
2023/03/22 12:49:20;;;;;;;2.75;1.20;;;12.60;84.10;;;;;;5088004;28;20024;-68
2023/03/22 12:51:47;;;;;;;3.08;1.33;;;12.60;84.60;;;;;;5084937;28;20439;-68
2023/03/22 12:54:16;;;;;;;5.20;1.50;;;12.60;83.90;;;;;;5094982;28;20024;-67
2023/03/22 12:56:46;;;;;;;2.78;1.60;;;12.60;83.80;;;;;;5092826;28;20039;-68
2023/03/22 12:59:17;;;;;;;2.83;1.25;;;12.60;83.80;;;;;;5093734;28;20024;-67
2023/03/22 13:01:53;;;;;;;2.10;1.30;;;12.60;83.70;;;;;;5082149;28;20598;-68